createdAt,value
2017-10-28T00:01:49.643Z,21.9
2017-10-28T00:03:49.770Z,21.9
2017-10-28T00:05:49.897Z,21.299999999999997
2017-10-28T00:07:50.037Z,21.9
2017-10-28T00:09:50.189Z,21.299999999999997
2017-10-28T00:11:50.312Z,20.799999999999997
2017-10-28T00:13:50.564Z,20.799999999999997
2017-10-28T00:15:50.803Z,20.799999999999997
2017-10-28T00:17:50.877Z,21.9
2017-10-28T00:19:51.682Z,20.799999999999997
2017-10-28T00:21:51.199Z,21.299999999999997
2017-10-28T00:23:51.508Z,21.299999999999997
2017-10-28T00:25:51.554Z,21.299999999999997
2017-10-28T00:27:51.750Z,21.9
2017-10-28T00:29:51.835Z,21.299999999999997
2017-10-28T00:31:52.000Z,21.299999999999997
2017-10-28T00:33:52.149Z,20.799999999999997
2017-10-28T00:35:52.293Z,20.799999999999997
2017-10-28T00:37:52.462Z,20.799999999999997
2017-10-28T00:39:53.140Z,20.799999999999997
2017-10-28T00:41:52.719Z,20.799999999999997
2017-10-28T00:43:52.889Z,20.799999999999997
2017-10-28T00:45:53.109Z,20.799999999999997
2017-10-28T00:47:53.169Z,20.799999999999997
2017-10-28T00:49:53.450Z,20.799999999999997
2017-10-28T00:51:53.571Z,19.700000000000003
2017-10-28T00:53:53.807Z,20.200000000000003
2017-10-28T00:55:53.996Z,20.799999999999997
2017-10-28T00:57:54.011Z,20.799999999999997
2017-10-28T00:59:54.994Z,20.200000000000003
2017-10-28T01:01:54.316Z,20.799999999999997
2017-10-28T01:03:54.429Z,19.700000000000003
2017-10-28T01:05:54.587Z,19.700000000000003
2017-10-28T01:07:54.720Z,19.700000000000003
2017-10-28T01:09:55.819Z,19.700000000000003
2017-10-28T01:11:55.095Z,19.700000000000003
2017-10-28T01:13:55.207Z,19.700000000000003
2017-10-28T01:15:55.389Z,19.700000000000003
2017-10-28T01:17:55.521Z,19.700000000000003
2017-10-28T01:19:55.807Z,19.700000000000003
2017-10-28T01:21:55.782Z,20.799999999999997
2017-10-28T01:23:56.004Z,20.200000000000003
2017-10-28T01:25:56.048Z,20.799999999999997
2017-10-28T01:27:56.215Z,21.299999999999997
2017-10-28T01:29:56.326Z,21.299999999999997
2017-10-28T01:31:56.508Z,21.299999999999997
2017-10-28T01:33:56.794Z,21.9
2017-10-28T01:35:56.872Z,21.299999999999997
2017-10-28T01:37:57.096Z,21.299999999999997
2017-10-28T01:39:57.236Z,21.9
2017-10-28T01:41:57.283Z,21.9
2017-10-28T01:43:57.402Z,21.9
2017-10-28T01:45:57.637Z,21.9
2017-10-28T01:47:57.754Z,21.9
2017-10-28T01:49:57.927Z,21.9
2017-10-28T01:51:58.110Z,21.299999999999997
2017-10-28T01:53:58.222Z,21.299999999999997
2017-10-28T01:55:58.362Z,20.799999999999997
2017-10-28T01:57:58.449Z,20.200000000000003
2017-10-28T01:59:58.626Z,20.200000000000003
2017-10-28T02:01:58.721Z,20.200000000000003
2017-10-28T02:03:58.832Z,20.200000000000003
2017-10-28T02:05:58.981Z,19.700000000000003
2017-10-28T02:07:59.429Z,20.799999999999997
2017-10-28T02:09:59.272Z,20.799999999999997
2017-10-28T02:11:59.437Z,20.799999999999997
2017-10-28T02:13:59.558Z,20.799999999999997
2017-10-28T02:15:59.712Z,21.299999999999997
2017-10-28T02:17:59.828Z,20.799999999999997
2017-10-28T02:19:59.965Z,20.799999999999997
2017-10-28T02:22:00.179Z,20.799999999999997
2017-10-28T02:24:00.334Z,20.799999999999997
2017-10-28T02:26:00.347Z,19.700000000000003
2017-10-28T02:28:00.529Z,20.200000000000003
2017-10-28T02:30:00.692Z,19.700000000000003
2017-10-28T02:32:00.739Z,19.700000000000003
2017-10-28T02:34:01.053Z,19.700000000000003
2017-10-28T02:36:00.998Z,19.200000000000003
2017-10-28T02:38:01.096Z,19.200000000000003
2017-10-28T02:40:01.207Z,19.700000000000003
2017-10-28T02:42:02.062Z,20.200000000000003
2017-10-28T02:44:01.471Z,19.700000000000003
2017-10-28T02:46:01.764Z,19.700000000000003
2017-10-28T02:48:02.641Z,20.200000000000003
2017-10-28T02:50:02.660Z,19.700000000000003
2017-10-28T02:52:02.757Z,19.700000000000003
2017-10-28T02:54:02.906Z,20.799999999999997
2017-10-28T02:56:02.989Z,20.799999999999997
2017-10-28T02:58:03.154Z,20.799999999999997
2017-10-28T03:00:03.286Z,20.799999999999997
2017-10-28T03:02:03.535Z,20.799999999999997
2017-10-28T03:04:03.626Z,20.799999999999997
2017-10-28T03:06:03.787Z,21.299999999999997
2017-10-28T03:08:03.869Z,21.9
2017-10-28T03:10:04.060Z,21.9
2017-10-28T03:12:04.187Z,21.299999999999997
2017-10-28T03:14:04.748Z,21.299999999999997
2017-10-28T03:16:04.586Z,21.9
2017-10-28T03:18:04.709Z,21.9
2017-10-28T03:20:04.857Z,21.299999999999997
2017-10-28T03:22:05.049Z,21.299999999999997
2017-10-28T03:24:05.146Z,20.799999999999997
2017-10-28T03:26:05.193Z,21.9
2017-10-28T03:28:05.368Z,20.799999999999997
2017-10-28T03:30:05.543Z,20.799999999999997
2017-10-28T03:32:05.603Z,20.799999999999997
2017-10-28T03:34:05.692Z,21.299999999999997
2017-10-28T03:36:05.871Z,21.9
2017-10-28T03:38:05.978Z,21.299999999999997
2017-10-28T03:40:06.106Z,21.299999999999997
2017-10-28T03:42:06.234Z,21.9
2017-10-28T03:44:06.345Z,21.299999999999997
2017-10-28T03:46:06.446Z,21.299999999999997
2017-10-28T03:48:06.604Z,20.799999999999997
2017-10-28T03:50:06.861Z,21.299999999999997
2017-10-28T03:52:06.818Z,21.9
2017-10-28T03:54:07.087Z,21.9
2017-10-28T03:56:07.104Z,21.299999999999997
2017-10-28T03:58:07.250Z,21.299999999999997
2017-10-28T04:00:07.365Z,21.299999999999997
2017-10-28T04:02:07.578Z,20.799999999999997
2017-10-28T04:04:08.080Z,22.4
2017-10-28T04:06:07.849Z,21.9
2017-10-28T04:08:08.023Z,21.9
2017-10-28T04:10:08.290Z,21.9
2017-10-28T04:12:08.384Z,21.299999999999997
2017-10-28T04:14:08.546Z,21.299999999999997
2017-10-28T04:16:08.659Z,21.9
2017-10-28T04:18:08.813Z,21.9
2017-10-28T04:20:09.020Z,21.9
2017-10-28T04:22:09.131Z,21.9
2017-10-28T04:24:09.274Z,21.299999999999997
2017-10-28T04:26:09.374Z,21.9
2017-10-28T04:28:09.539Z,21.299999999999997
2017-10-28T04:30:09.676Z,21.9
2017-10-28T04:32:09.875Z,21.9
2017-10-28T04:34:09.984Z,21.299999999999997
2017-10-28T04:36:10.130Z,21.9
2017-10-28T04:38:10.233Z,21.9
2017-10-28T04:40:10.526Z,21.299999999999997
2017-10-28T04:42:10.582Z,21.9
2017-10-28T04:44:10.715Z,20.799999999999997
2017-10-28T04:46:10.816Z,21.9
2017-10-28T04:48:10.964Z,21.9
2017-10-28T04:50:11.172Z,20.799999999999997
2017-10-28T04:52:11.189Z,21.299999999999997
2017-10-28T04:54:11.324Z,21.9
2017-10-28T04:56:11.463Z,21.299999999999997
2017-10-28T04:58:11.888Z,21.299999999999997
2017-10-28T05:00:11.872Z,21.299999999999997
2017-10-28T05:02:12.739Z,21.9
2017-10-28T05:04:11.991Z,21.299999999999997
2017-10-28T05:06:12.140Z,21.9
2017-10-28T05:08:12.320Z,21.9
2017-10-28T05:10:12.520Z,21.9
2017-10-28T05:12:12.529Z,21.9
2017-10-28T05:14:12.674Z,21.299999999999997
2017-10-28T05:16:12.819Z,21.299999999999997
2017-10-28T05:18:12.996Z,21.9
2017-10-28T05:20:13.054Z,21.9
2017-10-28T05:22:13.199Z,21.299999999999997
2017-10-28T05:24:13.315Z,21.9
2017-10-28T05:26:13.502Z,21.9
2017-10-28T05:28:13.565Z,21.9
2017-10-28T05:30:13.721Z,21.299999999999997
2017-10-28T05:32:13.912Z,21.299999999999997
2017-10-28T05:34:14.184Z,21.299999999999997
2017-10-28T05:36:14.292Z,21.9
2017-10-28T05:38:14.396Z,21.9
2017-10-28T05:40:14.521Z,21.299999999999997
2017-10-28T05:42:14.668Z,21.9
2017-10-28T05:44:14.788Z,21.9
2017-10-28T05:46:19.939Z,21.299999999999997
2017-10-28T05:48:15.116Z,21.299999999999997
2017-10-28T05:50:15.201Z,21.299999999999997
2017-10-28T05:52:15.349Z,21.9
2017-10-28T05:54:15.491Z,21.9
2017-10-28T05:56:15.634Z,21.9
2017-10-28T05:58:15.774Z,21.9
2017-10-28T06:00:15.926Z,21.9
2017-10-28T06:02:16.315Z,21.299999999999997
2017-10-28T06:04:16.454Z,21.9
2017-10-28T06:06:16.617Z,21.9
2017-10-28T06:08:16.751Z,21.9
2017-10-28T06:10:16.912Z,21.9
2017-10-28T06:12:17.142Z,21.299999999999997
2017-10-28T06:14:17.208Z,21.9
2017-10-28T06:16:17.365Z,21.299999999999997
2017-10-28T06:18:17.412Z,21.9
2017-10-28T06:20:17.542Z,21.9
2017-10-28T06:22:17.640Z,21.9
2017-10-28T06:24:17.829Z,21.9
2017-10-28T06:26:18.054Z,21.9
2017-10-28T06:28:18.141Z,21.9
2017-10-28T06:30:18.314Z,21.9
2017-10-28T06:32:18.458Z,21.9
2017-10-28T06:34:18.529Z,21.9
2017-10-28T06:36:18.699Z,21.9
2017-10-28T06:38:18.814Z,21.9
2017-10-28T06:40:19.134Z,21.9
2017-10-28T06:42:19.115Z,21.9
2017-10-28T06:44:19.247Z,21.9
2017-10-28T06:46:19.541Z,21.299999999999997
2017-10-28T06:48:19.490Z,21.9
2017-10-28T06:50:19.692Z,21.9
2017-10-28T06:52:19.739Z,21.299999999999997
2017-10-28T06:54:19.905Z,21.9
2017-10-28T06:56:20.065Z,21.299999999999997
2017-10-28T06:58:20.155Z,21.299999999999997
2017-10-28T07:00:20.447Z,21.9
2017-10-28T07:02:20.534Z,21.9
2017-10-28T07:04:20.854Z,21.9
2017-10-28T07:06:20.899Z,21.299999999999997
2017-10-28T07:08:21.013Z,22.4
2017-10-28T07:10:21.167Z,21.9
2017-10-28T07:12:21.265Z,21.9
2017-10-28T07:14:21.413Z,21.9
2017-10-28T07:16:21.580Z,21.9
2017-10-28T07:18:21.741Z,21.299999999999997
2017-10-28T07:20:21.891Z,21.9
2017-10-28T07:22:22.058Z,21.9
2017-10-28T07:24:22.079Z,21.9
2017-10-28T07:26:22.286Z,21.9
2017-10-28T07:28:22.482Z,21.9
2017-10-28T07:30:22.553Z,21.9
2017-10-28T07:32:22.696Z,21.299999999999997
2017-10-28T07:34:22.816Z,21.299999999999997
2017-10-28T07:36:22.985Z,21.299999999999997
2017-10-28T07:38:23.089Z,20.799999999999997
2017-10-28T07:40:23.258Z,20.799999999999997
2017-10-28T07:42:23.341Z,20.799999999999997
2017-10-28T07:44:23.552Z,21.299999999999997
2017-10-28T07:46:23.626Z,20.799999999999997
2017-10-28T07:48:23.688Z,20.799999999999997
2017-10-28T07:50:23.829Z,20.200000000000003
2017-10-28T07:52:24.088Z,20.799999999999997
2017-10-28T07:54:24.134Z,20.200000000000003
2017-10-28T07:56:24.424Z,21.299999999999997
2017-10-28T07:58:24.553Z,20.799999999999997
2017-10-28T08:00:24.662Z,20.799999999999997
2017-10-28T08:02:24.915Z,20.799999999999997
2017-10-28T08:04:24.938Z,20.799999999999997
2017-10-28T08:06:25.166Z,20.799999999999997
2017-10-28T08:08:25.221Z,20.799999999999997
2017-10-28T08:10:25.380Z,20.799999999999997
2017-10-28T08:12:25.489Z,20.799999999999997
2017-10-28T08:14:25.582Z,20.799999999999997
2017-10-28T08:16:25.756Z,20.799999999999997
2017-10-28T08:18:25.843Z,20.799999999999997
2017-10-28T08:20:25.934Z,21.299999999999997
2017-10-28T08:22:26.090Z,21.9
2017-10-28T08:24:26.240Z,21.9
2017-10-28T08:26:26.333Z,21.9
2017-10-28T08:28:26.494Z,21.9
2017-10-28T08:30:26.663Z,21.9
2017-10-28T08:32:26.756Z,21.9
2017-10-28T08:34:26.947Z,21.9
2017-10-28T08:36:27.100Z,22.4
2017-10-28T08:38:27.190Z,21.9
2017-10-28T08:40:27.327Z,21.9
2017-10-28T08:42:27.436Z,21.9
2017-10-28T08:44:27.522Z,21.9
2017-10-28T08:46:27.702Z,21.299999999999997
2017-10-28T08:48:27.856Z,21.9
2017-10-28T08:50:28.063Z,22.4
2017-10-28T08:52:28.248Z,21.9
2017-10-28T08:54:28.364Z,21.9
2017-10-28T08:56:28.594Z,21.9
2017-10-28T08:58:28.754Z,21.9
2017-10-28T09:00:28.858Z,21.9
2017-10-28T09:02:29.114Z,21.9
2017-10-28T09:04:29.100Z,21.9
2017-10-28T09:06:29.441Z,21.9
2017-10-28T09:08:29.695Z,22.4
2017-10-28T09:10:29.635Z,22.4
2017-10-28T09:12:29.738Z,22.9
2017-10-28T09:14:30.016Z,22.4
2017-10-28T09:16:30.130Z,21.9
2017-10-28T09:18:30.269Z,21.9
2017-10-28T09:20:30.384Z,21.9
2017-10-28T09:22:30.582Z,21.9
2017-10-28T09:24:30.691Z,21.9
2017-10-28T09:26:30.778Z,21.9
2017-10-28T09:28:30.919Z,21.9
2017-10-28T09:30:31.085Z,21.9
2017-10-28T09:32:31.214Z,21.9
2017-10-28T09:34:31.345Z,21.299999999999997
2017-10-28T09:36:31.477Z,21.9
2017-10-28T09:38:31.763Z,21.9
2017-10-28T09:40:31.832Z,22.4
2017-10-28T09:42:32.108Z,22.4
2017-10-28T09:44:32.399Z,21.9
2017-10-28T09:46:32.227Z,21.9
2017-10-28T09:48:32.354Z,21.9
2017-10-28T09:50:32.499Z,21.9
2017-10-28T09:52:32.662Z,21.299999999999997
2017-10-28T09:54:32.812Z,22.4
2017-10-28T09:56:33.129Z,22.4
2017-10-28T09:58:33.420Z,21.9
2017-10-28T10:00:33.514Z,21.9
2017-10-28T10:02:33.764Z,21.9
2017-10-28T10:04:33.728Z,21.9
2017-10-28T10:06:33.904Z,21.9
2017-10-28T10:08:33.978Z,21.9
2017-10-28T10:10:34.493Z,21.9
2017-10-28T10:12:34.244Z,21.9
2017-10-28T10:14:34.426Z,21.9
2017-10-28T10:16:34.550Z,21.9
2017-10-28T10:18:34.696Z,21.9
2017-10-28T10:20:34.882Z,21.299999999999997
2017-10-28T10:22:35.217Z,21.9
2017-10-28T10:24:35.478Z,21.299999999999997
2017-10-28T10:26:35.503Z,21.9
2017-10-28T10:28:35.610Z,21.9
2017-10-28T10:30:35.826Z,21.9
2017-10-28T10:32:35.947Z,21.9
2017-10-28T10:34:36.210Z,22.4
2017-10-28T10:36:36.338Z,21.9
2017-10-28T10:38:36.657Z,21.9
2017-10-28T10:40:36.910Z,21.9
2017-10-28T10:42:36.927Z,22.4
2017-10-28T10:44:37.124Z,21.9
2017-10-28T10:46:37.224Z,22.4
2017-10-28T10:48:37.425Z,21.9
2017-10-28T10:50:37.546Z,22.4
2017-10-28T10:52:37.675Z,21.9
2017-10-28T10:54:37.817Z,21.9
2017-10-28T10:56:37.862Z,21.9
2017-10-28T10:58:38.014Z,22.4
2017-10-28T11:00:38.266Z,21.9
2017-10-28T11:02:38.369Z,21.9
2017-10-28T11:04:38.465Z,22.9
2017-10-28T11:06:38.588Z,21.9
2017-10-28T11:08:38.758Z,21.9
2017-10-28T11:10:38.837Z,22.9
2017-10-28T11:12:38.960Z,22.4
2017-10-28T11:14:39.151Z,21.9
2017-10-28T11:16:39.249Z,21.9
2017-10-28T11:18:39.458Z,22.9
2017-10-28T11:20:39.577Z,21.9
2017-10-28T11:22:39.754Z,22.4
2017-10-28T11:24:39.880Z,21.9
2017-10-28T11:26:40.092Z,21.9
2017-10-28T11:28:40.297Z,22.9
2017-10-28T11:30:40.457Z,22.4
2017-10-28T11:32:40.595Z,21.9
2017-10-28T11:34:40.717Z,21.9
2017-10-28T11:36:40.858Z,21.9
2017-10-28T11:38:40.987Z,21.299999999999997
2017-10-28T11:40:41.091Z,21.9
2017-10-28T11:42:41.609Z,22.4
2017-10-28T11:44:41.665Z,21.299999999999997
2017-10-28T11:46:41.859Z,21.9
2017-10-28T11:48:42.068Z,21.9
2017-10-28T11:50:42.184Z,21.9
2017-10-28T11:52:42.260Z,21.9
2017-10-28T11:54:42.425Z,21.9
2017-10-28T11:56:42.498Z,20.799999999999997
2017-10-28T11:58:42.650Z,21.9
2017-10-28T12:00:42.818Z,22.9
2017-10-28T12:02:42.947Z,22.9
2017-10-28T12:04:43.073Z,22.4
2017-10-28T12:06:43.266Z,22.9
2017-10-28T12:08:43.567Z,22.9
2017-10-28T12:10:43.602Z,21.9
2017-10-28T12:12:43.723Z,21.9
2017-10-28T12:14:43.974Z,22.4
2017-10-28T12:16:43.980Z,22.9
2017-10-28T12:18:44.169Z,22.9
2017-10-28T12:20:44.491Z,21.9
2017-10-28T12:22:44.607Z,21.9
2017-10-28T12:24:44.710Z,21.9
2017-10-28T12:26:44.818Z,21.9
2017-10-28T12:28:44.937Z,21.9
2017-10-28T12:30:45.065Z,22.4
2017-10-28T12:32:45.260Z,21.9
2017-10-28T12:34:45.385Z,21.9
2017-10-28T12:36:45.517Z,21.9
2017-10-28T12:38:45.723Z,21.9
2017-10-28T12:40:45.775Z,22.4
2017-10-28T12:42:45.910Z,22.4
2017-10-28T12:44:46.082Z,22.9
2017-10-28T12:46:46.215Z,22.9
2017-10-28T12:48:46.335Z,22.9
2017-10-28T12:50:46.466Z,22.9
2017-10-28T12:52:46.664Z,22.4
2017-10-28T12:54:46.711Z,22.9
2017-10-28T12:56:46.826Z,21.9
2017-10-28T12:58:46.985Z,22.9
2017-10-28T13:00:47.092Z,22.9
2017-10-28T13:02:47.317Z,22.9
2017-10-28T13:04:47.361Z,22.9
2017-10-28T13:06:47.480Z,22.4
2017-10-28T13:08:47.581Z,22.9
2017-10-28T13:10:47.754Z,22.9
2017-10-28T13:12:47.824Z,22.9
2017-10-28T13:14:47.976Z,22.9
2017-10-28T13:16:48.254Z,22.9
2017-10-28T13:18:48.335Z,22.9
2017-10-28T13:20:48.453Z,22.9
2017-10-28T13:22:48.810Z,22.4
2017-10-28T13:24:48.821Z,22.9
2017-10-28T13:26:48.901Z,22.9
2017-10-28T13:28:49.058Z,23.5
2017-10-28T13:30:49.338Z,21.9
2017-10-28T13:32:49.368Z,22.9
2017-10-28T13:34:49.470Z,22.9
2017-10-28T13:36:49.632Z,22.9
2017-10-28T13:38:49.704Z,22.9
2017-10-28T13:40:49.898Z,22.9
2017-10-28T13:42:50.370Z,22.4
2017-10-28T13:44:50.091Z,22.9
2017-10-28T13:46:50.240Z,22.9
2017-10-28T13:48:50.349Z,21.9
2017-10-28T13:50:50.484Z,21.9
2017-10-28T13:52:50.608Z,22.4
2017-10-28T13:54:50.870Z,22.4
2017-10-28T13:56:51.065Z,21.9
2017-10-28T13:58:51.104Z,21.9
2017-10-28T14:00:51.238Z,21.9
2017-10-28T14:02:51.424Z,21.9
2017-10-28T14:04:51.590Z,21.9
2017-10-28T14:06:51.722Z,22.4
2017-10-28T14:08:51.947Z,21.9
2017-10-28T14:10:52.127Z,21.9
2017-10-28T14:12:52.258Z,21.299999999999997
2017-10-28T14:14:52.388Z,21.299999999999997
2017-10-28T14:16:52.503Z,21.9
2017-10-28T14:18:52.648Z,21.299999999999997
2017-10-28T14:20:52.962Z,21.299999999999997
2017-10-28T14:22:52.947Z,21.299999999999997
2017-10-28T14:24:53.041Z,21.299999999999997
2017-10-28T14:26:53.182Z,21.299999999999997
2017-10-28T14:28:53.388Z,21.299999999999997
2017-10-28T14:30:53.558Z,21.299999999999997
2017-10-28T14:32:53.654Z,21.9
2017-10-28T14:34:53.809Z,21.9
2017-10-28T14:36:53.911Z,21.299999999999997
2017-10-28T14:38:53.979Z,21.299999999999997
2017-10-28T14:40:54.301Z,21.299999999999997
2017-10-28T14:42:54.287Z,21.299999999999997
2017-10-28T14:44:54.455Z,21.9
2017-10-28T14:46:54.586Z,20.799999999999997
2017-10-28T14:48:54.897Z,21.299999999999997
2017-10-28T14:50:55.065Z,21.299999999999997
2017-10-28T14:52:55.172Z,21.299999999999997
2017-10-28T14:54:55.389Z,21.299999999999997
2017-10-28T14:56:55.600Z,21.299999999999997
2017-10-28T14:58:55.671Z,20.799999999999997
2017-10-28T15:00:55.784Z,21.9
2017-10-28T15:02:56.022Z,20.799999999999997
2017-10-28T15:04:56.231Z,20.799999999999997
2017-10-28T15:06:56.386Z,20.799999999999997
2017-10-28T15:08:56.706Z,20.799999999999997
2017-10-28T15:10:56.809Z,21.9
2017-10-28T15:12:56.931Z,21.9
2017-10-28T15:14:57.022Z,20.799999999999997
2017-10-28T15:16:57.175Z,21.9
2017-10-28T15:18:57.318Z,22.4
2017-10-28T15:20:57.503Z,22.4
2017-10-28T15:22:57.834Z,21.9
2017-10-28T15:24:57.842Z,21.9
2017-10-28T15:26:57.894Z,21.9
2017-10-28T15:28:58.033Z,21.9
2017-10-28T15:30:58.168Z,21.9
2017-10-28T15:32:58.249Z,21.299999999999997
2017-10-28T15:34:58.393Z,20.799999999999997
2017-10-28T15:36:58.530Z,21.9
2017-10-28T15:38:58.671Z,20.799999999999997
2017-10-28T15:40:58.777Z,20.799999999999997
2017-10-28T15:42:58.892Z,21.299999999999997
2017-10-28T15:44:59.025Z,20.799999999999997
2017-10-28T15:46:59.124Z,21.299999999999997
2017-10-28T15:48:59.368Z,20.200000000000003
2017-10-28T15:50:59.453Z,20.799999999999997
2017-10-28T15:52:59.657Z,20.799999999999997
2017-10-28T15:54:59.772Z,20.799999999999997
2017-10-28T15:56:59.930Z,20.799999999999997
2017-10-28T15:59:00.026Z,20.799999999999997
2017-10-28T16:01:00.355Z,20.799999999999997
2017-10-28T16:03:00.625Z,20.200000000000003
2017-10-28T16:05:00.704Z,20.799999999999997
2017-10-28T16:07:00.814Z,20.799999999999997
2017-10-28T16:09:01.110Z,20.799999999999997
2017-10-28T16:11:01.093Z,20.799999999999997
2017-10-28T16:13:01.214Z,20.799999999999997
2017-10-28T16:15:01.630Z,20.799999999999997
2017-10-28T16:17:01.555Z,20.799999999999997
2017-10-28T16:19:01.677Z,20.799999999999997
2017-10-28T16:21:01.866Z,20.799999999999997
2017-10-28T16:23:02.058Z,20.200000000000003
2017-10-28T16:25:02.494Z,20.799999999999997
2017-10-28T16:27:02.565Z,20.799999999999997
2017-10-28T16:29:02.898Z,20.799999999999997
2017-10-28T16:31:02.824Z,20.799999999999997
2017-10-28T16:33:02.991Z,21.299999999999997
2017-10-28T16:35:03.076Z,20.799999999999997
2017-10-28T16:37:03.207Z,20.799999999999997
2017-10-28T16:39:03.332Z,20.799999999999997
2017-10-28T16:41:03.525Z,20.799999999999997
2017-10-28T16:43:03.686Z,20.799999999999997
2017-10-28T16:45:03.794Z,20.799999999999997
2017-10-28T16:47:03.922Z,21.299999999999997
2017-10-28T16:49:04.079Z,21.299999999999997
2017-10-28T16:51:04.236Z,21.299999999999997
2017-10-28T16:53:04.391Z,21.299999999999997
2017-10-28T16:55:04.465Z,20.799999999999997
2017-10-28T16:57:04.535Z,21.299999999999997
2017-10-28T16:59:05.712Z,21.299999999999997
2017-10-28T17:01:04.896Z,21.299999999999997
2017-10-28T17:03:04.991Z,20.799999999999997
2017-10-28T17:05:05.086Z,20.799999999999997
2017-10-28T17:07:05.703Z,20.799999999999997
2017-10-28T17:09:05.776Z,20.799999999999997
2017-10-28T17:11:05.768Z,20.200000000000003
2017-10-28T17:13:05.952Z,20.799999999999997
2017-10-28T17:15:06.088Z,20.200000000000003
2017-10-28T17:17:06.197Z,20.799999999999997
2017-10-28T17:19:06.295Z,20.799999999999997
2017-10-28T17:21:06.479Z,20.799999999999997
2017-10-28T17:23:06.602Z,20.799999999999997
2017-10-28T17:25:06.692Z,21.299999999999997
2017-10-28T17:27:07.033Z,21.299999999999997
2017-10-28T17:29:07.150Z,21.299999999999997
2017-10-28T17:31:07.250Z,21.9
2017-10-28T17:33:07.369Z,21.9
2017-10-28T17:35:07.436Z,21.299999999999997
2017-10-28T17:37:07.647Z,21.9
2017-10-28T17:39:07.738Z,21.299999999999997
2017-10-28T17:41:07.876Z,21.9
2017-10-28T17:43:08.002Z,21.9
2017-10-28T17:45:08.134Z,21.9
2017-10-28T17:47:08.227Z,21.299999999999997
2017-10-28T17:49:08.414Z,21.9
2017-10-28T17:51:08.486Z,21.9
2017-10-28T17:53:08.761Z,21.9
2017-10-28T17:55:08.769Z,21.299999999999997
2017-10-28T17:57:08.860Z,21.299999999999997
2017-10-28T17:59:09.006Z,21.299999999999997
2017-10-28T18:01:09.159Z,21.9
2017-10-28T18:03:09.279Z,20.799999999999997
2017-10-28T18:05:09.438Z,21.299999999999997
2017-10-28T18:07:09.610Z,20.799999999999997
2017-10-28T18:09:09.777Z,20.799999999999997
2017-10-28T18:11:09.850Z,20.799999999999997
2017-10-28T18:13:09.947Z,20.799999999999997
2017-10-28T18:15:10.115Z,21.299999999999997
2017-10-28T18:17:10.384Z,20.799999999999997
2017-10-28T18:19:10.404Z,20.799999999999997
2017-10-28T18:21:10.547Z,20.799999999999997
2017-10-28T18:23:10.653Z,20.799999999999997
2017-10-28T18:25:10.778Z,19.700000000000003
2017-10-28T18:27:10.951Z,20.799999999999997
2017-10-28T18:29:11.164Z,20.799999999999997
2017-10-28T18:31:11.333Z,20.799999999999997
2017-10-28T18:33:11.441Z,20.799999999999997
2017-10-28T18:35:11.630Z,20.200000000000003
2017-10-28T18:37:11.764Z,20.799999999999997
2017-10-28T18:39:11.841Z,20.799999999999997
2017-10-28T18:41:12.044Z,20.799999999999997
2017-10-28T18:43:12.142Z,20.799999999999997
2017-10-28T18:45:12.202Z,21.299999999999997
2017-10-28T18:47:12.419Z,21.299999999999997
2017-10-28T18:49:12.509Z,20.799999999999997
2017-10-28T18:51:12.648Z,20.799999999999997
2017-10-28T18:53:12.864Z,21.299999999999997
2017-10-28T18:55:13.005Z,21.299999999999997
2017-10-28T18:57:13.034Z,21.299999999999997
2017-10-28T18:59:13.262Z,21.9
2017-10-28T19:01:13.325Z,21.299999999999997
2017-10-28T19:03:13.498Z,20.799999999999997
2017-10-28T19:05:13.794Z,21.299999999999997
2017-10-28T19:07:13.796Z,20.799999999999997
2017-10-28T19:09:13.997Z,20.799999999999997
2017-10-28T19:11:14.196Z,20.799999999999997
2017-10-28T19:13:14.257Z,20.799999999999997
2017-10-28T19:15:14.380Z,20.799999999999997
2017-10-28T19:17:14.522Z,20.799999999999997
2017-10-28T19:19:14.782Z,20.799999999999997
2017-10-28T19:21:14.951Z,20.799999999999997
2017-10-28T19:23:15.073Z,20.799999999999997
2017-10-28T19:25:15.159Z,20.200000000000003
2017-10-28T19:27:15.367Z,19.700000000000003
2017-10-28T19:29:15.441Z,20.799999999999997
2017-10-28T19:31:15.577Z,19.700000000000003
2017-10-28T19:33:15.748Z,20.200000000000003
2017-10-28T19:35:15.955Z,20.200000000000003
2017-10-28T19:37:16.090Z,20.200000000000003
2017-10-28T19:39:16.811Z,19.700000000000003
2017-10-28T19:41:16.389Z,19.700000000000003
2017-10-28T19:43:16.551Z,19.700000000000003
2017-10-28T19:45:16.674Z,19.700000000000003
2017-10-28T19:47:16.805Z,20.799999999999997
2017-10-28T19:49:16.961Z,20.799999999999997
2017-10-28T19:51:17.175Z,20.799999999999997
2017-10-28T19:53:17.279Z,20.799999999999997
2017-10-28T19:55:17.535Z,21.9
2017-10-28T19:57:17.740Z,21.299999999999997
2017-10-28T19:59:17.841Z,21.299999999999997
2017-10-28T20:01:18.051Z,21.9
2017-10-28T20:03:18.233Z,21.299999999999997
2017-10-28T20:05:18.245Z,21.9
2017-10-28T20:07:18.393Z,21.299999999999997
2017-10-28T20:09:19.316Z,21.9
2017-10-28T20:11:18.661Z,21.299999999999997
2017-10-28T20:13:18.756Z,21.299999999999997
2017-10-28T20:15:18.892Z,21.299999999999997
2017-10-28T20:17:19.069Z,21.299999999999997
2017-10-28T20:19:19.106Z,21.299999999999997
2017-10-28T20:21:19.235Z,20.799999999999997
2017-10-28T20:23:19.375Z,21.299999999999997
2017-10-28T20:25:19.517Z,21.9
2017-10-28T20:27:19.708Z,21.299999999999997
2017-10-28T20:29:19.789Z,21.9
2017-10-28T20:31:19.921Z,21.299999999999997
2017-10-28T20:33:20.158Z,21.9
2017-10-28T20:35:20.697Z,21.9
2017-10-28T20:37:20.330Z,21.299999999999997
2017-10-28T20:39:20.604Z,21.299999999999997
2017-10-28T20:41:20.705Z,20.799999999999997
2017-10-28T20:43:20.852Z,20.799999999999997
2017-10-28T20:45:21.046Z,20.799999999999997
2017-10-28T20:47:21.316Z,20.799999999999997
2017-10-28T20:49:21.318Z,20.799999999999997
2017-10-28T20:51:22.266Z,20.799999999999997
2017-10-28T20:53:21.578Z,20.799999999999997
2017-10-28T20:55:21.769Z,20.799999999999997
2017-10-28T20:57:21.890Z,20.799999999999997
2017-10-28T20:59:21.976Z,20.799999999999997
2017-10-28T21:01:22.197Z,20.799999999999997
2017-10-28T21:03:22.318Z,20.200000000000003
2017-10-28T21:05:22.380Z,20.200000000000003
2017-10-28T21:07:22.557Z,20.799999999999997
2017-10-28T21:09:22.727Z,19.700000000000003
2017-10-28T21:11:22.840Z,19.700000000000003
2017-10-28T21:13:22.943Z,20.799999999999997
2017-10-28T21:15:23.143Z,20.799999999999997
2017-10-28T21:17:23.246Z,20.799999999999997